Time;durP1;ratioP1;P1;durP2;ratioP2;P2;SDS_P1;SDS_P2;PMS_P1;PMS_P2;Temp;Humidity;BMP_temperature;BMP_pressure;BME280_temperature;BME280_humidity;BME280_pressure;Samples;Min_cycle;Max_cycle;Signal;HPM_P1;HPM_P2
2022/05/16 00:00:51;;;;;;;4.77;4.47;;;18.90;99.90;;;;;;5031937;28;20206;-54
2022/05/16 00:03:18;;;;;;;5.00;4.70;;;18.90;99.90;;;;;;5030569;28;20206;-54
2022/05/16 00:05:45;;;;;;;5.23;4.73;;;18.80;99.90;;;;;;5030649;28;20226;-55
2022/05/16 00:08:12;;;;;;;5.50;5.10;;;18.80;99.90;;;;;;5031715;28;20571;-55
2022/05/16 00:10:41;;;;;;;7.10;4.83;;;18.70;99.90;;;;;;5030031;28;20202;-55
2022/05/16 00:13:08;;;;;;;5.30;4.63;;;18.70;99.90;;;;;;5030249;28;20202;-54
2022/05/16 00:15:35;;;;;;;4.83;4.47;;;18.70;99.90;;;;;;5029416;28;20276;-54
2022/05/16 00:18:04;;;;;;;4.87;4.67;;;18.70;99.90;;;;;;5031755;28;20209;-54
2022/05/16 00:20:30;;;;;;;5.20;4.80;;;18.60;99.90;;;;;;5030880;28;20203;-54
2022/05/16 00:22:58;;;;;;;6.13;5.63;;;18.70;99.90;;;;;;5029497;28;20256;-55
2022/05/16 00:25:25;;;;;;;7.80;5.97;;;18.60;99.90;;;;;;5029801;28;20265;-54
2022/05/16 00:27:53;;;;;;;5.37;4.97;;;18.60;99.90;;;;;;5031162;28;20198;-55
2022/05/16 00:30:21;;;;;;;5.47;5.17;;;18.50;99.90;;;;;;5030919;28;20203;-54
2022/05/16 00:32:50;;;;;;;4.77;4.37;;;18.50;99.90;;;;;;5029702;28;20573;-54
2022/05/16 00:35:19;;;;;;;7.13;5.10;;;18.50;99.90;;;;;;5027817;28;20648;-54
2022/05/16 00:37:46;;;;;;;6.33;5.30;;;18.40;99.90;;;;;;5031079;28;20212;-55
2022/05/16 00:40:14;;;;;;;4.80;4.50;;;18.40;99.90;;;;;;5030202;28;20195;-54
2022/05/16 00:42:42;;;;;;;5.10;4.70;;;18.40;99.90;;;;;;5029503;28;20668;-55
2022/05/16 00:45:14;;;;;;;4.70;4.40;;;18.40;99.90;;;;;;5030598;28;20222;-54
2022/05/16 00:47:41;;;;;;;5.43;5.03;;;18.40;99.90;;;;;;5029083;28;20260;-54
2022/05/16 00:50:09;;;;;;;5.30;4.37;;;18.40;99.90;;;;;;5030990;28;20245;-55
2022/05/16 00:52:39;;;;;;;4.40;4.17;;;18.40;99.90;;;;;;5030197;28;20707;-55
2022/05/16 00:55:10;;;;;;;6.30;4.50;;;18.40;99.90;;;;;;5030933;28;20260;-55
2022/05/16 00:57:39;;;;;;;4.87;4.43;;;18.40;99.90;;;;;;5030345;28;20206;-55
2022/05/16 01:00:12;;;;;;;5.40;5.10;;;18.50;99.90;;;;;;5030107;28;20202;-55
2022/05/16 01:05:26;;;;;;;4.13;3.83;;;18.50;99.90;;;;;;5026402;28;20272;-54
2022/05/16 01:07:57;;;;;;;4.80;4.60;;;18.40;99.90;;;;;;5029993;28;20254;-55
2022/05/16 01:10:24;;;;;;;4.97;4.70;;;18.40;99.90;;;;;;5029983;28;20252;-54
2022/05/16 01:12:52;;;;;;;6.20;4.80;;;18.50;99.90;;;;;;5028952;28;20256;-55
2022/05/16 01:15:30;;;;;;;3.90;3.70;;;18.50;99.90;;;;;;5030630;28;20201;-54
2022/05/16 01:17:58;;;;;;;4.93;4.50;;;18.50;99.90;;;;;;5030967;28;20229;-54
2022/05/16 01:20:45;;;;;;;5.10;4.63;;;18.60;99.90;;;;;;5031186;28;20256;-55
2022/05/16 01:23:17;;;;;;;4.57;4.23;;;18.70;99.90;;;;;;5030710;28;20202;-54
2022/05/16 01:25:44;;;;;;;5.13;4.53;;;18.70;99.90;;;;;;5029734;28;20222;-54
2022/05/16 01:28:11;;;;;;;5.77;5.27;;;18.60;99.90;;;;;;5029835;28;20276;-54
2022/05/16 01:30:46;;;;;;;5.50;4.90;;;18.50;99.90;;;;;;5029189;28;20203;-54
2022/05/16 01:33:13;;;;;;;5.37;4.97;;;18.50;99.90;;;;;;5023231;28;20313;-54
2022/05/16 01:35:41;;;;;;;6.03;5.53;;;18.50;99.90;;;;;;5029557;28;20272;-54
2022/05/16 01:38:22;;;;;;;7.07;5.97;;;18.40;99.90;;;;;;5029491;28;20202;-54
2022/05/16 01:40:53;;;;;;;5.97;5.60;;;18.30;99.90;;;;;;5026505;28;20317;-55
2022/05/16 01:43:22;;;;;;;9.37;5.10;;;18.30;99.90;;;;;;5028151;28;20333;-54
2022/05/16 01:45:49;;;;;;;6.00;5.40;;;18.40;99.90;;;;;;5029387;28;20222;-55
2022/05/16 01:48:17;;;;;;;4.97;4.57;;;18.40;99.90;;;;;;5030765;28;20256;-54
2022/05/16 01:50:46;;;;;;;7.17;6.10;;;18.40;99.90;;;;;;5029524;28;20856;-54
2022/05/16 01:53:14;;;;;;;5.07;4.53;;;18.40;99.90;;;;;;5030238;28;20257;-54
2022/05/16 01:55:41;;;;;;;4.47;4.27;;;18.40;99.90;;;;;;5029114;28;20226;-54
2022/05/16 01:58:10;;;;;;;7.83;4.70;;;18.30;99.90;;;;;;5029852;28;20206;-56
2022/05/16 02:00:38;;;;;;;6.10;5.70;;;18.30;99.90;;;;;;5028651;28;20199;-54
2022/05/16 02:03:06;;;;;;;6.20;5.60;;;18.40;99.90;;;;;;5027359;28;20198;-54
2022/05/16 02:05:34;;;;;;;5.13;4.83;;;18.40;99.90;;;;;;5029209;28;20227;-54
2022/05/16 02:08:01;;;;;;;6.20;5.60;;;18.30;99.90;;;;;;5030407;28;20360;-55
2022/05/16 02:10:28;;;;;;;5.87;5.37;;;18.40;99.90;;;;;;5029143;28;20198;-54
2022/05/16 02:12:57;;;;;;;5.27;4.90;;;18.40;99.90;;;;;;5028961;28;20341;-54
2022/05/16 02:15:29;;;;;;;5.67;5.07;;;18.30;99.90;;;;;;5031154;28;20202;-54
2022/05/16 02:17:57;;;;;;;4.70;4.40;;;18.30;99.90;;;;;;5032766;28;20552;-54
2022/05/16 02:20:24;;;;;;;8.73;7.70;;;18.30;99.90;;;;;;5033685;28;20198;-54
2022/05/16 02:25:38;;;;;;;6.13;5.57;;;18.20;99.90;;;;;;5032863;28;20295;-54
2022/05/16 02:28:06;;;;;;;5.57;4.53;;;18.30;99.90;;;;;;5029199;28;20256;-55
2022/05/16 02:30:35;;;;;;;4.67;4.47;;;18.30;99.90;;;;;;5030779;28;20253;-54
2022/05/16 02:33:02;;;;;;;5.13;4.83;;;18.20;99.90;;;;;;5030868;28;20278;-55
2022/05/16 02:35:31;;;;;;;7.23;5.70;;;18.20;99.90;;;;;;5026749;28;20203;-55
2022/05/16 02:37:58;;;;;;;5.00;4.77;;;18.20;99.90;;;;;;5033072;28;20416;-55
2022/05/16 02:40:26;;;;;;;5.93;5.47;;;18.10;99.90;;;;;;5033531;28;20206;-55
2022/05/16 02:42:53;;;;;;;5.23;4.83;;;18.00;99.90;;;;;;5033344;28;20202;-55
2022/05/16 02:45:20;;;;;;;5.80;5.40;;;18.00;99.90;;;;;;5028815;28;20257;-55
2022/05/16 02:47:49;;;;;;;5.00;4.70;;;17.90;99.90;;;;;;5025479;28;20214;-55
2022/05/16 02:50:16;;;;;;;4.77;4.57;;;17.90;99.90;;;;;;5033298;28;20202;-54
2022/05/16 02:52:43;;;;;;;5.87;5.57;;;17.80;99.90;;;;;;5033083;28;20264;-55
2022/05/16 02:55:10;;;;;;;5.73;5.33;;;17.80;99.90;;;;;;5030106;28;20252;-54
2022/05/16 02:57:38;;;;;;;5.60;5.20;;;17.80;99.90;;;;;;5033160;28;20587;-55
2022/05/16 03:00:08;;;;;;;6.00;5.47;;;17.90;99.90;;;;;;5031609;28;20288;-54
2022/05/16 03:02:35;;;;;;;5.60;5.10;;;17.90;99.90;;;;;;5032811;28;20289;-54
2022/05/16 03:05:07;;;;;;;5.53;5.23;;;18.00;99.90;;;;;;5053849;22;20595;-48
2022/05/16 03:07:34;;;;;;;5.17;4.87;;;18.10;99.90;;;;;;5031580;28;20218;-48
2022/05/16 03:10:02;;;;;;;4.90;4.47;;;18.10;99.90;;;;;;5031752;28;20260;-48
2022/05/16 03:12:29;;;;;;;5.93;4.67;;;18.10;99.90;;;;;;5030786;28;20229;-48
2022/05/16 03:14:55;;;;;;;5.20;4.70;;;18.10;99.90;;;;;;5021647;28;20246;-48
2022/05/16 03:17:23;;;;;;;5.37;5.03;;;18.20;99.90;;;;;;5013109;28;20195;-48
2022/05/16 03:19:50;;;;;;;5.27;4.83;;;18.20;99.90;;;;;;5011876;28;20284;-48
2022/05/16 03:22:18;;;;;;;7.17;4.97;;;18.20;99.90;;;;;;5012568;28;20732;-47
2022/05/16 03:24:45;;;;;;;5.93;5.47;;;18.20;99.90;;;;;;5013938;28;20278;-48
2022/05/16 03:27:12;;;;;;;4.63;4.33;;;18.10;99.90;;;;;;5010380;28;20664;-47
2022/05/16 03:29:41;;;;;;;4.37;4.17;;;18.00;99.90;;;;;;5013932;28;20272;-47
2022/05/16 03:32:08;;;;;;;6.40;5.90;;;18.00;99.90;;;;;;5012565;28;20199;-48
2022/05/16 03:34:35;;;;;;;6.23;5.90;;;18.00;99.90;;;;;;5012658;28;20297;-48
2022/05/16 03:37:02;;;;;;;5.20;4.73;;;18.00;99.90;;;;;;5012038;28;20281;-52
2022/05/16 03:42:15;;;;;;;5.93;5.40;;;18.10;99.90;;;;;;5011646;28;20890;-48
2022/05/16 03:44:42;;;;;;;5.20;4.90;;;18.20;99.90;;;;;;5011374;28;20294;-48
2022/05/16 03:47:08;;;;;;;5.70;5.30;;;18.10;99.90;;;;;;5010763;28;20844;-48
2022/05/16 03:49:35;;;;;;;5.77;5.43;;;18.10;99.90;;;;;;5016446;28;20242;-47
2022/05/16 03:52:03;;;;;;;5.90;5.40;;;18.20;99.90;;;;;;5012326;28;20241;-47
2022/05/16 03:54:31;;;;;;;7.17;5.43;;;18.20;99.90;;;;;;5008374;28;20305;-48
2022/05/16 03:56:58;;;;;;;5.30;5.00;;;18.20;99.90;;;;;;5009852;28;20252;-48
2022/05/16 03:59:25;;;;;;;5.93;5.40;;;18.20;99.90;;;;;;5012195;28;20207;-48
2022/05/16 04:01:52;;;;;;;5.43;5.13;;;18.20;99.90;;;;;;5019056;28;20676;-48
2022/05/16 04:04:19;;;;;;;8.20;5.13;;;18.10;99.90;;;;;;5011005;28;20235;-48
2022/05/16 04:06:46;;;;;;;6.00;5.50;;;18.20;99.90;;;;;;5014789;28;20219;-48
2022/05/16 04:09:13;;;;;;;5.37;5.17;;;18.20;99.90;;;;;;5012461;28;20210;-47
2022/05/16 04:11:42;;;;;;;5.57;5.27;;;18.20;99.90;;;;;;5013484;28;20202;-48
2022/05/16 04:14:10;;;;;;;7.43;6.93;;;18.20;99.90;;;;;;5011501;28;20289;-47
2022/05/16 04:16:37;;;;;;;6.30;5.87;;;18.10;99.90;;;;;;5024204;28;20190;-48
2022/05/16 04:19:04;;;;;;;6.77;6.23;;;18.10;99.90;;;;;;5011852;28;20214;-48
2022/05/16 04:21:31;;;;;;;5.60;5.20;;;18.20;99.90;;;;;;5011108;28;20620;-48
2022/05/16 04:23:58;;;;;;;5.47;5.17;;;18.20;99.90;;;;;;5012019;28;20226;-48
2022/05/16 04:26:25;;;;;;;5.87;5.33;;;18.10;99.90;;;;;;5012781;28;20223;-47
2022/05/16 04:28:54;;;;;;;6.17;5.63;;;18.20;99.90;;;;;;5011477;28;20203;-47
2022/05/16 04:31:21;;;;;;;5.80;5.47;;;18.10;99.90;;;;;;5010256;28;20199;-47
2022/05/16 04:33:48;;;;;;;5.73;5.20;;;18.00;99.90;;;;;;5017237;28;20222;-49
2022/05/16 04:36:15;;;;;;;7.03;6.53;;;18.00;99.90;;;;;;5012348;28;20256;-48
2022/05/16 04:38:42;;;;;;;6.33;5.97;;;18.20;99.90;;;;;;5012425;28;20270;-48
2022/05/16 04:43:55;;;;;;;5.93;5.63;;;18.30;99.90;;;;;;5012267;28;20242;-48
2022/05/16 04:46:22;;;;;;;5.93;5.50;;;18.30;99.90;;;;;;5015248;28;20218;-48
2022/05/16 04:48:49;;;;;;;4.90;4.60;;;18.30;99.90;;;;;;5013971;28;20203;-48
2022/05/16 04:51:16;;;;;;;4.70;4.30;;;18.40;99.90;;;;;;5022642;28;20557;-48
2022/05/16 04:53:43;;;;;;;4.60;4.40;;;18.40;99.90;;;;;;5012135;28;20215;-48
2022/05/16 04:56:11;;;;;;;4.73;4.33;;;18.40;99.90;;;;;;5012200;28;20191;-48
2022/05/16 04:58:38;;;;;;;4.13;3.80;;;18.60;99.90;;;;;;5011256;28;20207;-48
2022/05/16 05:01:08;;;;;;;4.90;4.60;;;18.70;99.90;;;;;;5012282;28;20207;-48
2022/05/16 05:03:35;;;;;;;3.90;3.60;;;18.80;99.90;;;;;;5010933;28;20239;-47
2022/05/16 05:06:02;;;;;;;4.43;3.90;;;18.90;99.90;;;;;;5011898;28;20191;-48
2022/05/16 05:08:29;;;;;;;5.83;3.63;;;19.00;99.90;;;;;;5012001;28;20253;-48
2022/05/16 05:16:38;;;;;;;3.73;3.53;;;19.20;99.90;;;;;;4970265;28;20275;-48
2022/05/16 05:19:06;;;;;;;3.63;3.47;;;19.30;99.90;;;;;;4996078;28;20696;-48
2022/05/16 05:21:33;;;;;;;4.90;4.60;;;19.50;99.90;;;;;;5012768;28;20274;-48
2022/05/16 05:23:59;;;;;;;4.97;4.50;;;19.60;99.90;;;;;;5014691;28;20218;-48
2022/05/16 05:26:26;;;;;;;4.53;4.33;;;19.80;99.90;;;;;;5007406;28;20215;-48
2022/05/16 05:28:53;;;;;;;4.60;4.27;;;20.00;99.90;;;;;;5008629;28;20195;-48
2022/05/16 05:31:25;;;;;;;4.53;4.27;;;20.10;99.90;;;;;;5011606;28;20203;-48
2022/05/16 05:33:53;;;;;;;3.93;3.63;;;20.20;99.90;;;;;;5011716;28;20571;-47
2022/05/16 05:36:20;;;;;;;4.77;4.30;;;20.30;99.90;;;;;;5012480;28;20234;-47
2022/05/16 05:38:51;;;;;;;4.57;4.27;;;20.30;99.90;;;;;;5011014;28;20624;-48
2022/05/16 05:41:20;;;;;;;5.00;4.80;;;20.20;99.90;;;;;;5007932;28;20207;-48
2022/05/16 05:43:47;;;;;;;5.30;5.00;;;20.00;99.90;;;;;;5010366;28;20782;-48
2022/05/16 05:46:15;;;;;;;4.90;4.53;;;19.90;99.90;;;;;;5011290;28;20254;-48
2022/05/16 05:48:42;;;;;;;10.77;5.83;;;19.70;99.90;;;;;;5011475;28;20682;-48
2022/05/16 05:51:11;;;;;;;6.30;4.90;;;19.50;99.90;;;;;;5011332;28;20261;-48
2022/05/16 05:53:38;;;;;;;5.63;5.23;;;19.30;99.90;;;;;;5013144;28;20265;-48
2022/05/16 05:56:06;;;;;;;5.33;5.03;;;19.20;99.90;;;;;;5013348;28;20206;-47
2022/05/16 05:58:33;;;;;;;5.78;5.30;;;19.20;99.90;;;;;;5013110;28;20569;-48
2022/05/16 06:01:01;;;;;;;4.97;4.50;;;19.10;99.90;;;;;;5009471;28;20211;-47
2022/05/16 06:03:29;;;;;;;4.07;3.77;;;18.90;99.90;;;;;;5013493;28;20195;-47
2022/05/16 06:05:56;;;;;;;4.80;3.90;;;18.70;99.90;;;;;;5013010;28;20286;-47
2022/05/16 06:08:25;;;;;;;5.80;4.27;;;18.50;99.90;;;;;;5013792;28;20219;-48
2022/05/16 06:10:52;;;;;;;5.10;3.70;;;18.60;99.90;;;;;;5019281;28;20665;-47
2022/05/16 06:13:20;;;;;;;4.47;3.87;;;18.60;99.90;;;;;;5014119;28;20203;-47
2022/05/16 06:15:47;;;;;;;4.13;3.77;;;18.70;99.90;;;;;;5012644;28;20227;-48
2022/05/16 06:18:14;;;;;;;4.50;3.90;;;18.90;99.90;;;;;;5015281;28;20315;-47
2022/05/16 06:20:41;;;;;;;5.40;4.90;;;19.10;99.90;;;;;;5012232;28;20250;-48
2022/05/16 06:23:08;;;;;;;6.23;5.57;;;19.20;99.90;;;;;;5012671;28;20199;-48
2022/05/16 06:25:39;;;;;;;8.77;5.07;;;19.20;99.90;;;;;;5014264;28;20269;-48
2022/05/16 06:28:08;;;;;;;9.27;4.47;;;19.20;99.90;;;;;;5010145;28;20223;-47
2022/05/16 06:30:36;;;;;;;4.63;4.23;;;19.10;99.90;;;;;;5013795;28;20720;-47
2022/05/16 06:33:04;;;;;;;6.47;4.67;;;19.10;99.90;;;;;;5017604;28;20199;-47
2022/05/16 06:35:32;;;;;;;5.70;4.73;;;19.00;99.90;;;;;;5009029;28;20250;-48
2022/05/16 06:38:06;;;;;;;5.17;4.67;;;18.90;99.90;;;;;;5010221;28;20716;-47
2022/05/16 06:40:33;;;;;;;4.57;4.17;;;18.90;99.90;;;;;;5014416;28;20190;-47
2022/05/16 06:43:01;;;;;;;5.80;4.47;;;18.90;99.90;;;;;;5033879;28;20207;-48
2022/05/16 06:45:28;;;;;;;4.63;4.33;;;18.80;99.90;;;;;;5024109;28;20894;-48
2022/05/16 06:47:56;;;;;;;4.33;3.90;;;18.60;99.90;;;;;;5009244;28;20219;-47
2022/05/16 06:50:23;;;;;;;5.30;4.63;;;18.50;99.90;;;;;;5011099;28;20203;-47
2022/05/16 06:52:51;;;;;;;5.30;4.70;;;18.40;99.90;;;;;;5013563;28;20199;-47
2022/05/16 06:55:18;;;;;;;6.80;4.17;;;18.20;99.90;;;;;;5014001;28;20239;-47
2022/05/16 06:57:45;;;;;;;4.63;4.23;;;18.10;99.90;;;;;;5014311;28;20270;-48
2022/05/16 07:00:15;;;;;;;4.87;4.47;;;18.00;99.90;;;;;;5014285;28;20261;-47
2022/05/16 07:02:41;;;;;;;5.17;4.67;;;18.00;99.90;;;;;;5012471;28;20215;-47
2022/05/16 07:05:09;;;;;;;6.57;5.63;;;18.00;99.90;;;;;;5012437;28;20708;-48
2022/05/16 07:07:36;;;;;;;4.70;4.30;;;17.90;99.90;;;;;;5016345;28;20272;-47
2022/05/16 07:10:04;;;;;;;5.53;5.13;;;17.70;99.90;;;;;;5012240;28;20207;-48
2022/05/16 07:12:31;;;;;;;6.60;5.50;;;17.60;99.90;;;;;;5010706;28;20678;-46
2022/05/16 07:14:58;;;;;;;5.50;5.00;;;17.50;99.90;;;;;;5027847;28;20246;-47
2022/05/16 07:17:27;;;;;;;6.00;5.27;;;17.40;99.90;;;;;;5022789;28;20609;-48
2022/05/16 07:19:54;;;;;;;5.93;5.47;;;17.40;99.90;;;;;;5006801;28;20253;-47
2022/05/16 07:22:23;;;;;;;5.27;4.77;;;17.40;99.90;;;;;;5009848;28;20203;-47
2022/05/16 07:24:51;;;;;;;4.93;4.43;;;17.40;99.90;;;;;;5014461;28;20771;-47
2022/05/16 07:30:05;;;;;;;3.67;3.47;;;17.50;99.90;;;;;;5033380;28;20694;-46
2022/05/16 07:32:41;;;;;;;4.13;3.80;;;17.50;99.90;;;;;;5028660;28;20209;-47
2022/05/16 07:35:10;;;;;;;4.53;4.20;;;17.50;99.90;;;;;;5012763;28;20215;-46
2022/05/16 07:37:37;;;;;;;5.30;4.10;;;17.60;99.90;;;;;;5013133;28;20217;-47
2022/05/16 07:40:07;;;;;;;4.57;4.23;;;17.60;99.90;;;;;;5013303;28;20199;-46
2022/05/16 07:42:34;;;;;;;4.87;4.50;;;17.70;99.90;;;;;;5013059;28;20580;-47
2022/05/16 07:45:02;;;;;;;5.10;4.80;;;17.70;99.90;;;;;;5013121;28;20226;-47
2022/05/16 07:47:31;;;;;;;4.67;4.20;;;17.90;99.90;;;;;;5009960;28;20223;-47
2022/05/16 07:50:00;;;;;;;6.27;5.13;;;18.00;99.90;;;;;;5012909;28;20207;-47
2022/05/16 07:52:29;;;;;;;5.17;4.87;;;18.20;99.90;;;;;;5012870;28;20203;-47
2022/05/16 07:54:56;;;;;;;6.07;5.53;;;18.20;99.90;;;;;;4993296;28;20275;-46
2022/05/16 07:57:23;;;;;;;5.80;5.20;;;18.40;99.90;;;;;;4993402;28;20204;-47
2022/05/16 07:59:50;;;;;;;4.87;4.47;;;18.40;99.90;;;;;;4993240;28;20242;-47
2022/05/16 08:02:18;;;;;;;4.07;3.77;;;18.30;99.90;;;;;;5002754;28;20211;-47
2022/05/16 08:04:45;;;;;;;4.47;4.17;;;18.30;99.90;;;;;;5009453;28;20289;-47
2022/05/16 08:07:13;;;;;;;4.40;4.10;;;18.40;99.90;;;;;;5010081;28;20219;-46
2022/05/16 08:12:26;;;;;;;4.20;3.90;;;18.40;99.90;;;;;;5009143;28;20206;-47
2022/05/16 08:14:53;;;;;;;4.60;4.40;;;18.50;99.90;;;;;;5011277;28;20242;-47
2022/05/16 08:17:21;;;;;;;5.23;4.83;;;18.60;99.90;;;;;;5012535;28;20191;-47
2022/05/16 08:19:48;;;;;;;5.50;5.10;;;18.70;99.90;;;;;;5012716;28;20203;-47
2022/05/16 08:22:17;;;;;;;4.43;4.13;;;18.80;99.90;;;;;;5012234;28;20211;-48
2022/05/16 08:24:44;;;;;;;5.23;4.77;;;18.90;99.90;;;;;;5012293;28;20219;-48
2022/05/16 08:27:11;;;;;;;5.53;5.23;;;19.10;99.90;;;;;;5012436;28;20207;-48
2022/05/16 08:29:38;;;;;;;3.60;3.50;;;19.30;99.90;;;;;;5010409;28;20292;-48
2022/05/16 08:32:07;;;;;;;4.23;4.00;;;19.50;99.90;;;;;;5011937;28;20599;-48
2022/05/16 08:34:34;;;;;;;5.23;4.87;;;20.00;99.90;;;;;;5012194;28;20601;-48
2022/05/16 08:40:03;;;;;;;3.93;3.70;;;21.10;99.90;;;;;;5004534;28;20254;-48
2022/05/16 08:42:39;;;;;;;3.60;3.30;;;22.20;99.90;;;;;;5006729;28;21101;-48
2022/05/16 08:45:15;;;;;;;2.43;2.20;;;23.40;99.90;;;;;;5010524;28;20222;-49
2022/05/16 08:48:03;;;;;;;3.70;3.50;;;23.80;99.90;;;;;;5012027;28;20222;-48
2022/05/16 08:50:36;;;;;;;4.60;3.03;;;24.40;99.90;;;;;;5009288;28;20261;-48
2022/05/16 08:53:08;;;;;;;3.10;2.90;;;25.00;99.90;;;;;;5012149;28;20199;-48
2022/05/16 08:55:40;;;;;;;3.43;2.77;;;25.00;99.90;;;;;;5010712;28;20223;-49
2022/05/16 08:58:13;;;;;;;6.77;2.93;;;25.10;99.90;;;;;;5021844;28;20566;-48
2022/05/16 09:00:48;;;;;;;3.20;3.03;;;25.20;99.90;;;;;;5012238;28;20257;-48
2022/05/16 09:03:18;;;;;;;2.93;2.83;;;25.40;99.90;;;;;;5008838;28;20234;-48
2022/05/16 09:05:49;;;;;;;3.40;2.80;;;25.20;99.90;;;;;;5011139;28;20716;-48
2022/05/16 09:08:29;;;;;;;3.67;3.47;;;25.20;99.90;;;;;;5010275;28;20238;-48
2022/05/16 09:11:07;;;;;;;3.73;3.60;;;25.70;99.90;;;;;;5011076;28;20735;-48
2022/05/16 09:13:48;;;;;;;3.13;3.03;;;25.80;99.90;;;;;;5011076;28;20234;-49
2022/05/16 09:16:37;;;;;;;3.47;3.37;;;26.50;99.90;;;;;;5011181;28;20210;-48
2022/05/16 09:19:29;;;;;;;3.60;3.40;;;27.00;99.90;;;;;;5010973;28;20204;-49
2022/05/16 09:22:04;;;;;;;3.93;3.70;;;27.30;99.90;;;;;;5009583;28;20203;-49
2022/05/16 09:24:36;;;;;;;3.80;3.60;;;27.60;99.90;;;;;;5016940;28;20712;-48
2022/05/16 09:27:11;;;;;;;3.03;2.90;;;27.60;99.90;;;;;;5033009;28;20202;-49
2022/05/16 09:29:42;;;;;;;3.75;3.63;;;28.00;99.90;;;;;;5033533;28;20283;-48
2022/05/16 09:32:13;;;;;;;4.72;4.28;;;27.60;99.90;;;;;;5033387;28;20217;-49
2022/05/16 09:34:40;;;;;;;4.55;4.35;;;27.40;99.90;;;;;;5030565;28;20227;-49
2022/05/16 09:37:07;;;;;;;4.15;4.05;;;27.20;99.90;;;;;;5013761;28;20255;-49
2022/05/16 09:39:35;;;;;;;5.32;5.03;;;26.90;99.90;;;;;;5014896;28;20238;-49
2022/05/16 09:42:12;;;;;;;5.33;4.93;;;27.00;99.90;;;;;;5014602;28;20195;-49
2022/05/16 09:44:44;;;;;;;4.90;4.50;;;26.90;99.90;;;;;;5014109;28;20214;-49
2022/05/16 09:47:19;;;;;;;5.32;5.07;;;27.00;99.90;;;;;;5013053;28;20199;-48
2022/05/16 09:50:04;;;;;;;4.38;4.07;;;27.50;99.90;;;;;;5014620;28;20222;-49
2022/05/16 09:52:33;;;;;;;4.82;4.43;;;27.80;99.90;;;;;;5013459;28;20203;-48
2022/05/16 09:55:01;;;;;;;7.07;5.20;;;27.90;99.90;;;;;;5042595;22;20221;-55
2022/05/16 09:57:32;;;;;;;4.78;4.40;;;27.90;99.90;;;;;;5054191;28;20197;-55
2022/05/16 10:00:16;;;;;;;5.22;4.95;;;27.70;99.90;;;;;;5050139;28;20201;-55
2022/05/16 10:02:43;;;;;;;4.93;4.57;;;27.20;99.90;;;;;;5053771;28;20284;-55
2022/05/16 10:05:25;;;;;;;5.25;4.65;;;27.10;99.90;;;;;;5050850;28;20272;-55
2022/05/16 10:08:00;;;;;;;6.30;5.78;;;27.20;99.90;;;;;;5053334;28;20222;-55
2022/05/16 10:10:32;;;;;;;6.50;5.97;;;27.00;99.90;;;;;;5052177;28;20263;-55
2022/05/16 10:13:01;;;;;;;6.10;5.53;;;26.80;99.90;;;;;;5052236;28;20200;-55
2022/05/16 10:15:28;;;;;;;5.38;5.07;;;26.60;99.90;;;;;;5052153;28;20221;-55
2022/05/16 10:17:57;;;;;;;5.30;5.00;;;26.70;99.90;;;;;;5052794;28;20198;-55
2022/05/16 10:20:29;;;;;;;6.32;4.70;;;26.90;99.90;;;;;;5051459;28;20278;-54
2022/05/16 10:23:00;;;;;;;5.65;4.63;;;26.70;99.90;;;;;;5052200;28;20259;-55
2022/05/16 10:25:32;;;;;;;5.57;5.10;;;27.00;99.90;;;;;;5052961;28;20316;-55
2022/05/16 10:28:04;;;;;;;4.90;4.50;;;27.60;99.90;;;;;;5052452;28;20229;-55
2022/05/16 10:33:24;;;;;;;5.53;5.13;;;28.10;99.90;;;;;;5052972;28;20198;-55
2022/05/16 10:33:27;;;;;;;4.68;4.38;;;28.40;99.90;;;;;;5046837;28;20236;-56
2022/05/16 10:35:59;;;;;;;5.70;5.25;;;29.10;99.90;;;;;;5051527;28;20226;-55
2022/05/16 10:38:35;;;;;;;5.97;4.32;;;28.80;99.90;;;;;;5049809;28;20210;-55
2022/05/16 10:41:06;;;;;;;6.15;4.22;;;28.90;99.90;;;;;;5047606;28;20251;-55
2022/05/16 10:43:45;;;;;;;3.90;3.75;;;29.20;99.90;;;;;;5052773;28;20276;-55
2022/05/16 10:46:16;;;;;;;4.72;4.22;;;29.80;99.90;;;;;;5042343;28;20711;-56
2022/05/16 10:48:48;;;;;;;4.30;3.55;;;30.00;99.90;;;;;;5048383;28;20218;-55
2022/05/16 10:51:20;;;;;;;5.10;3.78;;;29.40;99.90;;;;;;5049155;28;20259;-55
2022/05/16 10:54:00;;;;;;;4.25;3.88;;;29.50;99.90;;;;;;5047960;28;20274;-55
2022/05/16 10:56:48;;;;;;;4.57;4.18;;;29.30;99.90;;;;;;5052994;28;20229;-55
2022/05/16 10:59:36;;;;;;;6.32;4.63;;;29.00;99.90;;;;;;5044881;28;20240;-55
2022/05/16 11:02:13;;;;;;;4.60;4.20;;;29.10;99.90;;;;;;5033258;28;20202;-55
2022/05/16 11:05:01;;;;;;;4.60;4.30;;;29.00;99.90;;;;;;5033112;28;20198;-55
2022/05/16 11:07:35;;;;;;;4.97;4.18;;;29.00;99.90;;;;;;5034260;28;20363;-55
2022/05/16 11:10:07;;;;;;;4.43;4.13;;;28.30;99.90;;;;;;5043903;28;20730;-55
2022/05/16 11:12:45;;;;;;;6.53;4.43;;;28.20;99.90;;;;;;5047992;28;20202;-55
2022/05/16 11:15:28;;;;;;;4.82;4.63;;;28.10;99.90;;;;;;5047609;28;20278;-54
2022/05/16 11:18:03;;;;;;;4.00;3.75;;;28.00;99.90;;;;;;5042241;28;20668;-55
2022/05/16 11:20:42;;;;;;;4.85;4.45;;;28.00;99.90;;;;;;5032244;28;20576;-55
2022/05/16 11:23:21;;;;;;;4.65;4.35;;;27.80;99.90;;;;;;5045114;28;20197;-55
2022/05/16 11:25:55;;;;;;;5.93;4.50;;;27.80;99.90;;;;;;5051020;28;20221;-55
2022/05/16 11:28:33;;;;;;;3.92;3.67;;;27.90;99.90;;;;;;5043844;28;20282;-55
2022/05/16 11:31:04;;;;;;;5.22;4.78;;;27.60;99.90;;;;;;5032242;28;20194;-55
2022/05/16 11:33:41;;;;;;;5.47;5.05;;;27.70;99.90;;;;;;5033679;28;20553;-55
2022/05/16 11:36:16;;;;;;;4.57;4.07;;;27.70;99.90;;;;;;5050631;28;20222;-55
2022/05/16 11:39:08;;;;;;;5.40;4.63;;;27.90;99.90;;;;;;5043819;28;20202;-55
2022/05/16 11:41:46;;;;;;;5.90;4.45;;;27.80;99.90;;;;;;5048184;28;20252;-55
2022/05/16 11:44:28;;;;;;;5.07;4.60;;;27.60;99.90;;;;;;5050645;28;20725;-55
2022/05/16 11:47:06;;;;;;;5.40;4.45;;;27.60;99.90;;;;;;5046631;28;20244;-55
2022/05/16 11:49:41;;;;;;;5.03;4.65;;;27.60;99.90;;;;;;5049725;28;20271;-55
2022/05/16 11:52:25;;;;;;;4.65;4.25;;;27.70;99.90;;;;;;5038184;28;20706;-55
2022/05/16 11:54:58;;;;;;;4.43;4.03;;;27.90;99.90;;;;;;5048842;28;20248;-55
2022/05/16 12:00:33;;;;;;;5.15;4.40;;;27.80;99.90;;;;;;5048361;28;20271;-55
2022/05/16 12:03:18;;;;;;;6.80;4.93;;;28.00;99.90;;;;;;5050050;28;20209;-55
2022/05/16 12:05:48;;;;;;;4.20;3.78;;;27.90;99.90;;;;;;5042753;28;20301;-55
2022/05/16 12:08:32;;;;;;;7.45;3.25;;;27.60;99.90;;;;;;5039578;28;20209;-55
2022/05/16 12:11:10;;;;;;;5.63;4.35;;;27.80;99.90;;;;;;5049404;28;20212;-55
2022/05/16 12:13:56;;;;;;;4.78;4.47;;;27.60;99.90;;;;;;5050689;28;20202;-55
2022/05/16 12:16:31;;;;;;;4.28;3.97;;;27.60;99.90;;;;;;5049406;28;20217;-54
2022/05/16 12:19:15;;;;;;;3.80;3.42;;;27.80;99.90;;;;;;5035777;28;20276;-55
2022/05/16 12:21:53;;;;;;;4.53;4.15;;;27.50;99.90;;;;;;5046181;28;20284;-54
2022/05/16 12:24:56;;;;;;;3.92;3.58;;;27.20;99.90;;;;;;5049460;28;20205;-55
2022/05/16 12:27:30;;;;;;;4.28;3.90;;;26.90;99.90;;;;;;5045153;28;20205;-54
2022/05/16 12:29:59;;;;;;;6.23;4.27;;;26.40;99.90;;;;;;5051167;28;20221;-55
2022/05/16 12:32:45;;;;;;;4.43;3.47;;;26.20;99.90;;;;;;5051518;28;20259;-55
2022/05/16 12:35:15;;;;;;;6.97;4.32;;;26.00;99.90;;;;;;5051073;28;20221;-54
2022/05/16 12:37:42;;;;;;;4.63;4.30;;;25.80;99.90;;;;;;5051673;28;20232;-55
2022/05/16 12:40:17;;;;;;;5.40;3.57;;;25.60;99.90;;;;;;5051628;28;20194;-54
2022/05/16 12:43:08;;;;;;;4.63;4.20;;;25.50;99.90;;;;;;5050487;28;20274;-55
2022/05/16 12:45:58;;;;;;;4.37;4.03;;;25.30;99.90;;;;;;5048581;28;20252;-55
2022/05/16 12:49:05;;;;;;;5.13;4.70;;;25.10;99.90;;;;;;5031411;28;20677;-55
2022/05/16 12:51:50;;;;;;;4.93;4.07;;;25.00;99.90;;;;;;5037244;28;20251;-55
2022/05/16 12:54:39;;;;;;;5.33;4.93;;;25.00;99.90;;;;;;5049495;28;20202;-55
2022/05/16 12:57:35;;;;;;;5.03;4.63;;;24.90;99.90;;;;;;5049490;28;20194;-55
2022/05/16 13:00:07;;;;;;;4.13;3.73;;;24.70;99.90;;;;;;5047133;28;20252;-55
2022/05/16 13:02:46;;;;;;;8.30;4.50;;;24.60;99.90;;;;;;5048950;28;20198;-55
2022/05/16 13:05:23;;;;;;;4.07;3.77;;;24.30;99.90;;;;;;5049065;28;20282;-54
2022/05/16 13:08:02;;;;;;;4.07;3.77;;;24.10;99.90;;;;;;5049034;28;20392;-55
2022/05/16 13:10:34;;;;;;;10.50;4.40;;;24.30;99.90;;;;;;5048831;28;20221;-55
2022/05/16 13:13:10;;;;;;;3.70;3.37;;;24.50;99.90;;;;;;5048859;28;20194;-55
2022/05/16 13:15:45;;;;;;;4.53;3.40;;;24.70;99.90;;;;;;5047262;28;20305;-55
2022/05/16 13:18:19;;;;;;;4.27;3.87;;;25.10;99.90;;;;;;5043261;28;20204;-55
2022/05/16 13:20:46;;;;;;;4.77;4.30;;;25.40;99.90;;;;;;5049182;28;20248;-55
2022/05/16 13:23:15;;;;;;;6.13;3.80;;;25.90;99.90;;;;;;5045758;28;20462;-54
2022/05/16 13:31:11;;;;;;;5.37;3.70;;;26.20;99.90;;;;;;5048485;28;20206;-54
2022/05/16 13:33:40;;;;;;;4.17;3.87;;;26.10;99.90;;;;;;5045256;28;20612;-54
2022/05/16 13:36:16;;;;;;;5.07;3.90;;;25.80;99.90;;;;;;5049090;28;20248;-54
2022/05/16 13:38:46;;;;;;;4.27;3.70;;;25.50;99.90;;;;;;5048866;28;20263;-54
2022/05/16 13:41:14;;;;;;;4.70;3.23;;;25.50;99.90;;;;;;5048582;28;20932;-54